This is the latest recevied weather packets stored in our database for station/object KQ4PPF. If no packets are shown the sender has not sent any weather packets the latest 10 day(s).
| Time | Temp. | Humidity | Pressure | Rain* | Wind** | Luminosity | Snow |
|---|---|---|---|---|---|---|---|
| 1777926958 | 24.44° C | 46% | 1012.7 hPa | 0 mm | - | 70 W/m² | - |
| 1777926655 | 25° C | 48% | 1012.7 hPa | 0 mm | - | 75 W/m² | - |
| 1777926350 | 25° C | 48% | 1012.7 hPa | 0 mm | - | 75 W/m² | - |
| 1777926049 | 24.44° C | 46% | 1012.9 hPa | 0 mm | - | 81 W/m² | - |
| 1777925745 | 24.44° C | 49% | 1012.8 hPa | 0 mm | - | 97 W/m² | - |
| 1777925443 | 24.44° C | 48% | 1012.7 hPa | 0 mm | - | 92 W/m² | - |
| 1777925138 | 25° C | 46% | 1012.9 hPa | 0 mm | - | 92 W/m² | - |
| 1777924836 | 24.44° C | 47% | 1012.9 hPa | 0 mm | - | 93 W/m² | - |
| 1777924532 | 25° C | 46% | 1013 hPa | 0 mm | - | 88 W/m² | - |
| 1777924228 | 25° C | 46% | 1013 hPa | 0 mm | - | 90 W/m² | - |
| 1777923925 | 25° C | 45% | 1013.3 hPa | 0 mm | - | 90 W/m² | - |
| 1777923620 | 25° C | 47% | 1013.2 hPa | 0 mm | - | 98 W/m² | - |
| 1777923317 | 24.44° C | 50% | 1013.2 hPa | 0 mm | - | 110 W/m² | - |
| 1777923016 | 25° C | 47% | 1013.6 hPa | 0 mm | - | 102 W/m² | - |
| 1777922714 | 25° C | 50% | 1013.5 hPa | 0 mm | - | 115 W/m² | - |
| 1777922412 | 25° C | 49% | 1013.7 hPa | 0 mm | - | 121 W/m² | - |
| 1777922109 | 25° C | 46% | 1013.8 hPa | 0 mm | - | 118 W/m² | - |
| 1777921805 | 25° C | 48% | 1013.4 hPa | 0 mm | - | 134 W/m² | - |
| 1777921501 | 25° C | 49% | 1013.8 hPa | 0 mm | - | 136 W/m² | - |
| 1777921198 | 24.44° C | 50% | 1013.7 hPa | 0 mm | - | 119 W/m² | - |
| 1777920895 | 24.44° C | 47% | 1013.8 hPa | 0 mm | - | 108 W/m² | - |
| 1777920591 | 24.44° C | 48% | 1014.1 hPa | 0 mm | - | 119 W/m² | - |
| 1777920287 | 24.44° C | 47% | 1014.2 hPa | 0 mm | - | 111 W/m² | - |
| 1777919982 | 24.44° C | 46% | 1014.3 hPa | 0 mm | - | 106 W/m² | - |
| 1777919680 | 25° C | 50% | 1014 hPa | 0 mm | - | 84 W/m² | - |
* Rain latest hour (hover to see other rain measurements)
** Current wind speed in m/s (hover to see current wind gust speed)